Estación de Sagrada Familia

Ultimos registro cada 15 minutos 40
Estación Fecha / Hora Temperatura Humedad Lluvia Velocidad Dirección Radiación Presion
40 Sagrada Familia 04-09-2026 09:45 6,9 86 0 0 185 179 1025,3
39 Sagrada Familia 04-09-2026 09:30 6,8 88 0 0,4 229 171 1025,3
38 Sagrada Familia 04-09-2026 09:15 6,4 90 0 1,3 238 123 1025,2
37 Sagrada Familia 04-09-2026 09:00 6,2 91 0 0 337 88 1025,2
36 Sagrada Familia 04-09-2026 08:45 6 93 0 0,4 46 102 1025,1
35 Sagrada Familia 04-09-2026 08:30 5,9 94 0 0,4 20 102 1025
34 Sagrada Familia 04-09-2026 08:15 5,4 95 0 0,9 45 83 1025
33 Sagrada Familia 04-09-2026 08:00 4,3 95 0 1,3 35 56 1024,8
32 Sagrada Familia 04-09-2026 07:45 3,4 95 0 0 67 44 1024,6
31 Sagrada Familia 04-09-2026 07:30 2,7 94 0 0 140 49 1024,4
30 Sagrada Familia 04-09-2026 07:15 2,7 93 0 0 140 12 1024,3
29 Sagrada Familia 04-09-2026 07:00 2,7 93 0 0 140 5 1024,3
28 Sagrada Familia 04-09-2026 06:45 3 93 0 0 140 0 1024,2
27 Sagrada Familia 04-09-2026 06:30 3,1 93 0 0 140 0 1024,1
26 Sagrada Familia 04-09-2026 06:15 3,1 93 0 0 140 0 1024
25 Sagrada Familia 04-09-2026 06:00 3,2 93 0 0 140 0 1024
24 Sagrada Familia 04-09-2026 05:45 3,2 92 0 0 140 0 1023,9
23 Sagrada Familia 04-09-2026 05:30 3,4 92 0 0 140 0 1023,8
22 Sagrada Familia 04-09-2026 05:15 3,7 92 0 0 140 0 1023,8
21 Sagrada Familia 04-09-2026 05:00 3,8 92 0 0 151 0 1023,8
20 Sagrada Familia 04-09-2026 04:45 3,9 91 0 0,4 151 0 1024
19 Sagrada Familia 04-09-2026 04:30 4,1 91 0 0 151 0 1023,8
18 Sagrada Familia 04-09-2026 04:15 4,4 90 0 0 235 0 1023,8
17 Sagrada Familia 04-09-2026 04:00 4,7 90 0 0 235 0 1023,9
16 Sagrada Familia 04-09-2026 03:45 5,1 90 0 0 235 0 1023,7
15 Sagrada Familia 04-09-2026 03:30 5,2 89 0 0 235 0 1023,9
14 Sagrada Familia 04-09-2026 03:15 5,3 88 0 0 235 0 1024
13 Sagrada Familia 04-09-2026 03:00 5,8 88 0 0 235 0 1024,1
12 Sagrada Familia 04-09-2026 02:45 6,3 87 0 0 235 0 1024,1
11 Sagrada Familia 04-09-2026 02:30 6,6 86 0 0 242 0 1024,3
10 Sagrada Familia 04-09-2026 02:15 7,2 85 0 0 242 0 1024,3
9 Sagrada Familia 04-09-2026 02:00 7,9 82 0 0 231 0 1024,2
8 Sagrada Familia 04-09-2026 01:45 9,2 79 0 0 231 0 1024,5
7 Sagrada Familia 04-09-2026 01:30 9,2 81 0 1,3 247 0 1024,6
6 Sagrada Familia 04-09-2026 01:15 9,8 78 0 0 233 0 1024,3
5 Sagrada Familia 04-09-2026 01:00 9,8 79 0 0,4 264 0 1024,3
4 Sagrada Familia 04-09-2026 00:45 9,4 80 0 0,4 277 0 1024,5
3 Sagrada Familia 04-09-2026 00:30 9,4 79 0 0 346 0 1024,6
2 Sagrada Familia 04-09-2026 00:15 9,7 78 0 0,4 306 0 1024,5
1 Sagrada Familia 04-09-2026 00:00 9,9 79 0 0,9 295 0 1024,6